Terminal Aerodrome Forecast
Issued by NWS

Home | Current Version | Previous Version | Text Only | Print | Product List | Glossary On
Versions: 1 2 3 4 5 6 7 8 9 10 11 12 13 14 15 16 17
000
FTUS41 KCAR 272040 AAA
TAFPQI
TAF AMD
KPQI 272040Z 2721/2818 19007KT 4SM -SHRA OVC040
      TEMPO 2721/2722 1/2SM +TSRAGS OVC025CB
     FM280000 VRB03KT 3SM SHRA OVC035
     FM280400 VRB03KT 6SM -SHRA OVC030
     FM280700 16004KT 3SM -SHRA OVC008=

USA.gov is the U.S. government's official web portal to all federal, state and local government web resources and services.